createdAt,value
2017-12-27T00:04:16.909Z,3.18
2017-12-27T00:06:49.904Z,3.15
2017-12-27T00:09:23.028Z,3.12
2017-12-27T00:11:56.059Z,3.08
2017-12-27T00:14:28.998Z,3.05
2017-12-27T00:17:02.219Z,2.98
2017-12-27T00:19:35.241Z,2.98
2017-12-27T00:22:08.370Z,3.01
2017-12-27T00:24:41.399Z,2.99
2017-12-27T00:27:14.515Z,2.93
2017-12-27T00:29:47.584Z,2.87
2017-12-27T00:32:15.421Z,2.81
2017-12-27T00:34:42.975Z,2.82
2017-12-27T00:37:10.388Z,2.75
2017-12-27T00:39:37.792Z,2.70
2017-12-27T00:42:05.227Z,2.63
2017-12-27T00:44:32.710Z,2.60
2017-12-27T00:47:00.111Z,2.63
2017-12-27T00:49:27.524Z,2.62
2017-12-27T00:51:54.943Z,2.63
2017-12-27T00:54:22.450Z,2.63
2017-12-27T00:56:49.851Z,2.64
2017-12-27T00:59:17.247Z,2.61
2017-12-27T01:01:44.706Z,2.57
2017-12-27T01:04:12.107Z,2.51
2017-12-27T01:06:39.620Z,2.50
2017-12-27T01:09:07.059Z,2.50
2017-12-27T01:11:34.455Z,2.49
2017-12-27T01:14:01.860Z,2.49
2017-12-27T01:16:29.274Z,2.47
2017-12-27T01:18:56.703Z,2.47
2017-12-27T01:21:24.159Z,2.44
2017-12-27T01:23:51.580Z,2.46
2017-12-27T01:26:19.071Z,2.42
2017-12-27T01:28:46.478Z,2.41
2017-12-27T01:31:13.895Z,2.40
2017-12-27T01:33:41.324Z,2.40
2017-12-27T01:36:08.800Z,2.42
2017-12-27T01:38:36.190Z,2.45
2017-12-27T01:41:03.617Z,2.45
2017-12-27T01:43:31.443Z,2.43
2017-12-27T01:45:58.854Z,2.43
2017-12-27T01:48:26.273Z,2.43
2017-12-27T01:50:53.675Z,2.42
2017-12-27T01:53:21.077Z,2.42
2017-12-27T01:55:48.491Z,2.37
2017-12-27T01:58:15.897Z,2.35
2017-12-27T02:00:43.291Z,2.31
2017-12-27T02:03:10.712Z,2.30
2017-12-27T02:05:38.118Z,2.30
2017-12-27T02:08:05.511Z,2.30
2017-12-27T02:10:32.944Z,2.27
2017-12-27T02:13:00.348Z,2.27
2017-12-27T02:15:27.761Z,2.26
2017-12-27T02:17:55.257Z,2.24
2017-12-27T02:20:22.663Z,2.26
2017-12-27T02:22:50.054Z,2.24
2017-12-27T02:25:17.490Z,2.22
2017-12-27T02:27:44.886Z,2.23
2017-12-27T02:30:12.286Z,2.18
2017-12-27T02:32:39.709Z,2.11
2017-12-27T02:35:07.097Z,2.10
2017-12-27T02:37:34.531Z,2.06
2017-12-27T02:43:02.683Z,2.05
2017-12-27T02:45:30.118Z,2.03
2017-12-27T02:47:57.510Z,2.02
2017-12-27T02:50:24.938Z,2.02
2017-12-27T02:52:52.361Z,2.01
2017-12-27T02:55:19.787Z,2.04
2017-12-27T02:57:47.200Z,1.98
2017-12-27T03:00:14.696Z,1.97
2017-12-27T03:02:42.114Z,1.94
2017-12-27T03:05:09.519Z,1.93
2017-12-27T03:07:36.937Z,1.92
2017-12-27T03:10:04.350Z,1.93
2017-12-27T03:12:31.767Z,1.91
2017-12-27T03:14:59.194Z,1.92
2017-12-27T03:17:26.597Z,1.90
2017-12-27T03:19:53.999Z,1.89
2017-12-27T03:22:21.445Z,1.91
2017-12-27T03:24:48.839Z,1.93
2017-12-27T03:27:16.234Z,1.95
2017-12-27T03:29:43.678Z,1.98
2017-12-27T03:32:11.074Z,1.99
2017-12-27T03:34:38.565Z,2.04
2017-12-27T03:37:05.994Z,2.05
2017-12-27T03:39:33.496Z,2.07
2017-12-27T03:42:00.886Z,2.06
2017-12-27T03:44:28.302Z,2.01
2017-12-27T03:46:55.693Z,1.93
2017-12-27T03:49:23.105Z,1.80
2017-12-27T03:51:50.520Z,1.73
2017-12-27T03:54:17.927Z,1.62
2017-12-27T03:56:45.323Z,1.51
2017-12-27T03:59:12.751Z,1.43
2017-12-27T04:01:40.159Z,1.39
2017-12-27T04:04:07.561Z,1.31
2017-12-27T04:06:35.010Z,1.29
2017-12-27T04:09:02.411Z,1.27
2017-12-27T04:11:29.810Z,1.26
2017-12-27T04:13:57.239Z,1.24
2017-12-27T04:16:24.738Z,1.21
2017-12-27T04:18:52.127Z,1.23
2017-12-27T04:21:19.651Z,1.23
2017-12-27T04:23:47.131Z,1.24
2017-12-27T04:26:14.544Z,1.22
2017-12-27T04:28:41.954Z,1.19
2017-12-27T04:31:09.373Z,1.20
2017-12-27T04:33:36.808Z,1.18
2017-12-27T04:36:04.198Z,1.22
2017-12-27T04:38:31.601Z,1.25
2017-12-27T04:40:59.036Z,1.30
2017-12-27T04:43:26.442Z,1.30
2017-12-27T04:45:53.841Z,1.33
2017-12-27T04:48:21.287Z,1.33
2017-12-27T04:50:48.687Z,1.32
2017-12-27T04:53:16.092Z,1.27
2017-12-27T04:55:43.540Z,1.22
2017-12-27T04:58:10.955Z,1.17
2017-12-27T05:00:38.349Z,1.13
2017-12-27T05:03:05.772Z,1.11
2017-12-27T05:05:33.171Z,1.10
2017-12-27T05:08:00.615Z,1.10
2017-12-27T05:10:28.046Z,1.11
2017-12-27T05:12:55.447Z,1.10
2017-12-27T05:15:22.872Z,1.09
2017-12-27T05:17:50.342Z,1.08
2017-12-27T05:20:17.748Z,1.08
2017-12-27T05:22:45.140Z,1.08
2017-12-27T05:25:12.564Z,1.10
2017-12-27T05:27:39.963Z,1.12
2017-12-27T05:30:07.431Z,1.17
2017-12-27T05:32:34.844Z,1.18
2017-12-27T05:35:02.325Z,1.20
2017-12-27T05:37:29.715Z,1.21
2017-12-27T05:39:57.151Z,1.22
2017-12-27T05:42:24.582Z,1.21
2017-12-27T05:44:52.679Z,1.21
2017-12-27T05:47:20.081Z,1.24
2017-12-27T05:49:47.515Z,1.25
2017-12-27T05:52:14.930Z,1.25
2017-12-27T05:54:42.336Z,1.25
2017-12-27T05:57:09.759Z,1.25
2017-12-27T05:59:37.163Z,1.26
2017-12-27T06:02:04.588Z,1.26
2017-12-27T06:04:31.983Z,1.28
2017-12-27T06:06:59.388Z,1.31
2017-12-27T06:09:26.817Z,1.33
2017-12-27T06:11:54.295Z,1.33
2017-12-27T06:14:21.703Z,1.32
2017-12-27T06:16:49.311Z,1.31
2017-12-27T06:19:16.703Z,1.32
2017-12-27T06:21:44.098Z,1.33
2017-12-27T06:24:11.532Z,1.33
2017-12-27T06:26:39.022Z,1.35
2017-12-27T06:29:06.420Z,1.34
2017-12-27T06:31:33.847Z,1.32
2017-12-27T06:34:01.270Z,1.32
2017-12-27T06:36:28.671Z,1.31
2017-12-27T06:38:56.110Z,1.30
2017-12-27T06:41:23.573Z,1.28
2017-12-27T06:43:50.971Z,1.27
2017-12-27T06:46:18.410Z,1.22
2017-12-27T06:48:45.835Z,1.19
2017-12-27T06:51:13.260Z,1.18
2017-12-27T06:53:40.676Z,1.16
2017-12-27T06:56:08.082Z,1.14
2017-12-27T06:58:35.484Z,1.13
2017-12-27T07:01:02.908Z,1.11
2017-12-27T07:03:30.315Z,1.12
2017-12-27T07:05:57.731Z,1.15
2017-12-27T07:08:25.146Z,1.15
2017-12-27T07:10:52.562Z,1.15
2017-12-27T07:13:19.986Z,1.17
2017-12-27T07:15:47.395Z,1.17
2017-12-27T07:18:14.901Z,1.16
2017-12-27T07:20:42.313Z,1.19
2017-12-27T07:23:09.815Z,1.20
2017-12-27T07:25:37.212Z,1.19
2017-12-27T07:28:04.640Z,1.22
2017-12-27T07:30:32.057Z,1.28
2017-12-27T07:32:59.469Z,1.27
2017-12-27T07:35:26.895Z,1.25
2017-12-27T07:37:54.296Z,1.28
2017-12-27T07:40:21.701Z,1.32
2017-12-27T07:42:49.162Z,1.27
2017-12-27T07:45:16.558Z,1.27
2017-12-27T07:47:43.988Z,1.26
2017-12-27T07:50:11.432Z,1.28
2017-12-27T07:52:38.839Z,1.35
2017-12-27T07:55:06.239Z,1.39
2017-12-27T07:57:33.675Z,1.40
2017-12-27T08:00:01.089Z,1.39
2017-12-27T08:02:28.489Z,1.38
2017-12-27T08:04:55.941Z,1.41
2017-12-27T08:07:23.343Z,1.46
2017-12-27T08:09:50.759Z,1.52
2017-12-27T08:12:18.174Z,1.55
2017-12-27T08:14:45.603Z,1.62
2017-12-27T08:17:13.059Z,1.65
2017-12-27T08:19:40.495Z,1.68
2017-12-27T08:22:07.918Z,1.74
2017-12-27T08:24:35.322Z,1.82
2017-12-27T08:27:02.751Z,1.90
2017-12-27T08:29:30.166Z,2.02
2017-12-27T08:31:57.569Z,2.15
2017-12-27T08:34:24.998Z,2.22
2017-12-27T08:36:52.411Z,2.33
2017-12-27T08:39:19.866Z,2.40
2017-12-27T08:41:47.324Z,2.45
2017-12-27T08:44:14.739Z,2.50
2017-12-27T08:46:42.173Z,2.51
2017-12-27T08:49:09.592Z,2.50
2017-12-27T08:51:36.993Z,2.50
2017-12-27T08:54:04.422Z,2.50
2017-12-27T08:56:31.863Z,2.57
2017-12-27T08:58:59.278Z,2.62
2017-12-27T09:01:26.706Z,2.68
2017-12-27T09:03:54.361Z,2.72
2017-12-27T09:06:21.761Z,2.77
2017-12-27T09:08:49.244Z,2.81
2017-12-27T09:11:16.705Z,2.83
2017-12-27T09:13:44.140Z,2.90
2017-12-27T09:16:11.551Z,2.98
2017-12-27T09:18:38.978Z,3.04
2017-12-27T09:21:06.407Z,3.12
2017-12-27T09:23:33.886Z,3.24
2017-12-27T09:26:01.345Z,3.44
2017-12-27T09:28:28.803Z,3.52
2017-12-27T09:30:56.245Z,3.69
2017-12-27T09:33:23.638Z,3.66
2017-12-27T09:35:51.098Z,3.58
2017-12-27T09:38:18.491Z,3.54
2017-12-27T09:40:45.986Z,3.51
2017-12-27T09:43:13.411Z,3.54
2017-12-27T09:45:40.835Z,3.64
2017-12-27T09:48:08.246Z,3.65
2017-12-27T09:50:35.702Z,3.72
2017-12-27T09:53:03.150Z,3.79
2017-12-27T09:55:30.551Z,3.79
2017-12-27T09:57:57.966Z,3.83
2017-12-27T10:00:25.395Z,3.85
2017-12-27T10:02:52.816Z,3.80
2017-12-27T10:05:20.215Z,3.79
2017-12-27T10:07:47.643Z,3.93
2017-12-27T10:10:15.103Z,3.97
2017-12-27T10:12:42.513Z,4.04
2017-12-27T10:15:09.948Z,4.12
2017-12-27T10:17:37.428Z,4.11
2017-12-27T10:20:04.834Z,4.14
2017-12-27T10:22:32.349Z,4.14
2017-12-27T10:24:59.745Z,4.21
2017-12-27T10:27:27.264Z,4.24
2017-12-27T10:29:54.694Z,4.30
2017-12-27T10:32:22.108Z,4.26
2017-12-27T10:34:49.511Z,4.26
2017-12-27T10:37:16.947Z,4.34
2017-12-27T10:39:44.427Z,4.31
2017-12-27T10:42:11.836Z,4.35
2017-12-27T10:44:39.275Z,4.43
2017-12-27T10:47:06.683Z,4.44
2017-12-27T10:49:34.154Z,4.49
2017-12-27T10:52:01.578Z,4.52
2017-12-27T10:54:28.991Z,4.57
2017-12-27T10:56:56.396Z,4.64
2017-12-27T10:59:23.830Z,4.67
2017-12-27T11:01:51.347Z,4.72
2017-12-27T11:04:18.792Z,4.72
2017-12-27T11:06:46.211Z,4.72
2017-12-27T11:09:13.636Z,4.78
2017-12-27T11:11:41.076Z,4.90
2017-12-27T11:14:08.490Z,4.92
2017-12-27T11:16:35.925Z,4.83
2017-12-27T11:19:03.345Z,4.86
2017-12-27T11:21:30.755Z,4.97
2017-12-27T11:23:58.195Z,5.10
2017-12-27T11:26:25.619Z,5.22
2017-12-27T11:28:53.031Z,5.22
2017-12-27T11:31:20.494Z,5.33
2017-12-27T11:33:47.907Z,5.36
2017-12-27T11:36:15.321Z,5.37
2017-12-27T11:38:42.742Z,5.45
2017-12-27T11:41:10.151Z,5.52
2017-12-27T11:43:37.568Z,5.55
2017-12-27T11:46:04.991Z,5.52
2017-12-27T11:48:32.416Z,5.50
2017-12-27T11:50:59.810Z,5.59
2017-12-27T11:53:27.247Z,5.68
2017-12-27T11:55:54.775Z,5.72
2017-12-27T11:58:22.233Z,5.81
2017-12-27T12:00:49.690Z,5.89
2017-12-27T12:03:17.160Z,5.86
2017-12-27T12:05:44.604Z,5.82
2017-12-27T12:08:12.079Z,6.02
2017-12-27T12:10:39.496Z,6.05
2017-12-27T12:13:06.930Z,6.00
2017-12-27T12:15:34.343Z,5.95
2017-12-27T12:18:01.887Z,5.89
2017-12-27T12:20:29.322Z,5.86
2017-12-27T12:22:56.727Z,5.81
2017-12-27T12:25:24.127Z,5.83
2017-12-27T12:27:51.572Z,5.82
2017-12-27T12:30:18.980Z,5.80
2017-12-27T12:32:46.387Z,5.81
2017-12-27T12:35:13.817Z,5.72
2017-12-27T12:37:41.236Z,5.71
2017-12-27T12:40:08.703Z,5.66
2017-12-27T12:42:36.124Z,5.66
2017-12-27T12:45:03.527Z,5.69
2017-12-27T12:47:31.104Z,5.73
2017-12-27T12:49:58.528Z,5.73
2017-12-27T12:52:26.047Z,5.74
2017-12-27T12:54:53.498Z,5.78
2017-12-27T12:57:20.890Z,5.75
2017-12-27T12:59:48.455Z,5.70
2017-12-27T13:02:15.949Z,5.75
2017-12-27T13:04:43.368Z,5.74
2017-12-27T13:07:10.825Z,5.77
2017-12-27T13:09:38.395Z,5.78
2017-12-27T13:12:05.851Z,5.81
2017-12-27T13:14:33.280Z,5.75
2017-12-27T13:17:00.690Z,5.68
2017-12-27T13:19:28.105Z,5.66
2017-12-27T13:21:55.525Z,5.64
2017-12-27T13:24:22.939Z,5.61
2017-12-27T13:26:50.352Z,5.60
2017-12-27T13:29:17.786Z,5.62
2017-12-27T13:31:45.207Z,5.63
2017-12-27T13:34:12.702Z,5.65
2017-12-27T13:36:40.215Z,5.61
2017-12-27T13:39:07.651Z,5.62
2017-12-27T13:41:35.130Z,5.58
2017-12-27T13:44:02.603Z,5.48
2017-12-27T13:46:30.016Z,5.48
2017-12-27T13:48:57.520Z,5.44
2017-12-27T13:51:24.935Z,5.38
2017-12-27T13:53:52.349Z,5.34
2017-12-27T13:56:19.771Z,5.35
2017-12-27T13:58:47.228Z,5.35
2017-12-27T14:01:14.641Z,5.38
2017-12-27T14:03:42.044Z,5.36
2017-12-27T14:06:09.475Z,5.32
2017-12-27T14:08:36.874Z,5.32
2017-12-27T14:11:04.281Z,5.25
2017-12-27T14:13:31.703Z,5.20
2017-12-27T14:15:59.115Z,5.13
2017-12-27T14:18:26.522Z,5.14
2017-12-27T14:20:53.950Z,5.06
2017-12-27T14:23:21.359Z,5.03
2017-12-27T14:25:48.887Z,5.00
2017-12-27T14:28:16.315Z,4.97
2017-12-27T14:30:43.730Z,4.96
2017-12-27T14:33:11.224Z,4.94
2017-12-27T14:35:38.660Z,4.91
2017-12-27T14:38:06.058Z,4.90
2017-12-27T14:40:33.499Z,4.94
2017-12-27T14:43:01.043Z,4.96
2017-12-27T14:45:28.454Z,4.96
2017-12-27T14:47:55.859Z,4.95
2017-12-27T14:50:23.340Z,4.91
2017-12-27T14:52:50.804Z,4.94
2017-12-27T14:55:18.218Z,4.97
2017-12-27T14:57:45.640Z,4.95
2017-12-27T15:00:13.089Z,4.97
2017-12-27T15:02:40.508Z,4.96
2017-12-27T15:05:07.918Z,4.93
2017-12-27T15:07:35.425Z,4.90
2017-12-27T15:10:02.834Z,4.91
2017-12-27T15:12:30.326Z,4.93
2017-12-27T15:14:57.762Z,4.94
2017-12-27T15:17:25.183Z,4.94
2017-12-27T15:19:52.596Z,4.91
2017-12-27T15:22:20.039Z,4.88
2017-12-27T15:24:47.443Z,4.87
2017-12-27T15:27:14.881Z,4.89
2017-12-27T15:29:42.321Z,4.83
2017-12-27T15:32:09.743Z,4.82
2017-12-27T15:34:37.142Z,4.81
2017-12-27T15:37:04.576Z,4.83
2017-12-27T15:39:32.055Z,4.82
2017-12-27T15:41:59.476Z,4.84
2017-12-27T15:44:26.966Z,4.86
2017-12-27T15:46:54.399Z,4.88
2017-12-27T15:49:21.808Z,4.92
2017-12-27T15:51:49.247Z,4.92
2017-12-27T15:54:16.695Z,4.92
2017-12-27T15:56:44.136Z,4.83
2017-12-27T15:59:11.589Z,4.81
2017-12-27T16:01:39.014Z,4.79
2017-12-27T16:04:06.415Z,4.71
2017-12-27T16:06:33.875Z,4.69
2017-12-27T16:09:01.322Z,4.69
2017-12-27T16:11:28.859Z,4.64
2017-12-27T16:13:56.262Z,4.59
2017-12-27T16:16:23.693Z,4.57
2017-12-27T16:18:51.132Z,4.56
2017-12-27T16:21:18.678Z,4.55
2017-12-27T16:23:46.107Z,4.51
2017-12-27T16:26:13.517Z,4.50
2017-12-27T16:28:40.927Z,4.49
2017-12-27T16:31:08.346Z,4.47
2017-12-27T16:33:35.771Z,4.45
2017-12-27T16:36:03.174Z,4.43
2017-12-27T16:38:30.590Z,4.42
2017-12-27T16:40:58.063Z,4.38
2017-12-27T16:43:25.479Z,4.38
2017-12-27T16:45:52.890Z,4.41
2017-12-27T16:48:20.318Z,4.41
2017-12-27T16:50:47.776Z,4.40
2017-12-27T16:53:15.169Z,4.38
2017-12-27T16:55:42.794Z,4.38
2017-12-27T16:58:10.194Z,4.38
2017-12-27T17:00:37.609Z,4.37
2017-12-27T17:03:05.034Z,4.32
2017-12-27T17:05:32.622Z,4.30
2017-12-27T17:08:00.023Z,4.32
2017-12-27T17:10:27.481Z,4.30
2017-12-27T17:12:54.961Z,4.28
2017-12-27T17:15:22.375Z,4.25
2017-12-27T17:17:49.807Z,4.18
2017-12-27T17:20:17.210Z,4.15
2017-12-27T17:22:44.632Z,4.11
2017-12-27T17:25:12.058Z,4.10
2017-12-27T17:27:39.475Z,4.09
2017-12-27T17:30:06.911Z,4.08
2017-12-27T17:32:34.312Z,4.07
2017-12-27T17:35:01.815Z,4.03
2017-12-27T17:37:29.234Z,4.02
2017-12-27T17:39:56.723Z,3.98
2017-12-27T17:42:24.155Z,3.96
2017-12-27T17:44:51.562Z,3.98
2017-12-27T17:47:19.082Z,3.92
2017-12-27T17:49:46.490Z,3.88
2017-12-27T17:52:13.920Z,3.84
2017-12-27T17:54:41.354Z,3.85
2017-12-27T17:57:08.761Z,3.90
2017-12-27T17:59:36.229Z,4.01
2017-12-27T18:02:03.615Z,4.10
2017-12-27T18:04:31.020Z,4.08
2017-12-27T18:06:58.453Z,4.05
2017-12-27T18:09:25.862Z,4.04
2017-12-27T18:11:53.270Z,3.95
2017-12-27T18:14:20.699Z,3.94
2017-12-27T18:16:48.112Z,3.92
2017-12-27T18:19:15.555Z,3.95
2017-12-27T18:21:42.980Z,3.93
2017-12-27T18:24:10.406Z,3.87
2017-12-27T18:26:37.883Z,3.83
2017-12-27T18:29:05.354Z,3.85
2017-12-27T18:31:32.767Z,3.85
2017-12-27T18:34:00.202Z,3.84
2017-12-27T18:36:27.709Z,3.83
2017-12-27T18:38:55.111Z,3.81
2017-12-27T18:41:22.596Z,3.83
2017-12-27T18:43:50.028Z,3.83
2017-12-27T18:46:17.443Z,3.86
2017-12-27T18:48:45.936Z,3.84
2017-12-27T18:51:13.354Z,3.85
2017-12-27T18:53:40.759Z,3.83
2017-12-27T18:56:08.204Z,3.77
2017-12-27T18:58:35.611Z,3.72
2017-12-27T19:01:11.016Z,3.71
2017-12-27T19:03:38.443Z,3.62
2017-12-27T19:06:05.895Z,3.61
2017-12-27T19:08:33.324Z,3.56
2017-12-27T19:11:00.739Z,3.57
2017-12-27T19:13:28.156Z,3.56
2017-12-27T19:15:55.630Z,3.52
2017-12-27T19:18:23.096Z,3.50
2017-12-27T19:20:50.543Z,3.47
2017-12-27T19:23:17.971Z,3.45
2017-12-27T19:25:45.380Z,3.40
2017-12-27T19:28:12.806Z,3.36
2017-12-27T19:30:40.229Z,3.31
2017-12-27T19:33:07.662Z,3.25
2017-12-27T19:35:35.075Z,3.17
2017-12-27T19:38:02.529Z,3.14
2017-12-27T19:40:29.955Z,3.12
2017-12-27T19:42:57.395Z,3.10
2017-12-27T19:45:24.794Z,3.07
2017-12-27T19:47:52.218Z,3.03
2017-12-27T19:50:19.630Z,2.97
2017-12-27T19:52:47.056Z,2.97
2017-12-27T19:55:14.489Z,2.93
2017-12-27T19:57:41.995Z,2.94
2017-12-27T20:00:09.437Z,2.92
2017-12-27T20:02:36.848Z,2.90
2017-12-27T20:05:04.288Z,2.88
2017-12-27T20:07:31.737Z,2.84
2017-12-27T20:09:59.181Z,2.81
2017-12-27T20:12:26.639Z,2.83
2017-12-27T20:14:54.179Z,2.84
2017-12-27T20:17:21.580Z,2.85
2017-12-27T20:19:49.096Z,2.83
2017-12-27T20:22:16.553Z,2.79
2017-12-27T20:24:43.964Z,2.79
2017-12-27T20:27:11.372Z,2.76
2017-12-27T20:29:38.807Z,2.72
2017-12-27T20:32:06.222Z,2.76
2017-12-27T20:34:33.650Z,2.76
2017-12-27T20:37:01.065Z,2.75
2017-12-27T20:39:28.476Z,2.76
2017-12-27T20:41:55.910Z,2.72
2017-12-27T20:44:23.342Z,2.71
2017-12-27T20:46:50.917Z,2.70
2017-12-27T20:49:18.334Z,2.68
2017-12-27T20:51:45.775Z,2.65
2017-12-27T20:54:13.203Z,2.60
2017-12-27T20:56:40.619Z,2.57
2017-12-27T20:59:08.202Z,2.56
2017-12-27T21:01:35.676Z,2.53
2017-12-27T21:04:03.079Z,2.50
2017-12-27T21:06:30.511Z,2.48
2017-12-27T21:08:57.942Z,2.47
2017-12-27T21:11:25.396Z,2.51
2017-12-27T21:13:52.826Z,2.54
2017-12-27T21:16:20.313Z,2.60
2017-12-27T21:18:47.775Z,2.61
2017-12-27T21:21:15.227Z,2.61
2017-12-27T21:23:42.855Z,2.59
2017-12-27T21:26:10.370Z,2.58
2017-12-27T21:28:37.799Z,2.57
2017-12-27T21:31:05.271Z,2.54
2017-12-27T21:33:32.679Z,2.51
2017-12-27T21:36:00.112Z,2.51
2017-12-27T21:38:27.523Z,2.48
2017-12-27T21:40:55.004Z,2.46
2017-12-27T21:43:22.529Z,2.48
2017-12-27T21:45:49.956Z,2.52
2017-12-27T21:48:22.994Z,2.43
2017-12-27T21:50:50.568Z,2.38
2017-12-27T21:53:18.053Z,2.39
2017-12-27T21:55:45.479Z,2.43
2017-12-27T21:58:18.538Z,2.43
2017-12-27T22:00:51.527Z,2.42
2017-12-27T22:03:19.141Z,2.43
2017-12-27T22:05:46.644Z,2.42
2017-12-27T22:08:14.323Z,2.42
2017-12-27T22:10:41.887Z,2.39
2017-12-27T22:13:09.317Z,2.38
2017-12-27T22:15:36.755Z,2.39
2017-12-27T22:18:04.250Z,2.40
2017-12-27T22:20:37.238Z,2.42
2017-12-27T22:23:04.647Z,2.40
2017-12-27T22:25:32.319Z,2.42
2017-12-27T22:28:00.103Z,2.49
2017-12-27T22:30:27.779Z,2.47
2017-12-27T22:32:55.326Z,2.48
2017-12-27T22:35:22.902Z,2.42
2017-12-27T22:37:50.306Z,2.42
2017-12-27T22:40:17.735Z,2.37
2017-12-27T22:42:45.159Z,2.33
2017-12-27T22:45:12.562Z,2.32
2017-12-27T22:47:39.970Z,2.27
2017-12-27T22:50:07.542Z,2.21
2017-12-27T22:52:34.980Z,2.18
2017-12-27T22:55:02.379Z,2.11
2017-12-27T22:57:29.908Z,2.11
2017-12-27T22:59:57.311Z,2.12
2017-12-27T23:02:24.726Z,2.20
2017-12-27T23:04:52.458Z,2.31
2017-12-27T23:07:19.875Z,2.41
2017-12-27T23:09:47.392Z,2.44
2017-12-27T23:12:14.797Z,2.43
2017-12-27T23:14:42.227Z,2.42
2017-12-27T23:17:09.629Z,2.40
2017-12-27T23:19:37.043Z,2.36
2017-12-27T23:22:04.462Z,2.33
2017-12-27T23:24:31.870Z,2.36
2017-12-27T23:26:59.306Z,2.34
2017-12-27T23:29:26.706Z,2.37
2017-12-27T23:31:54.206Z,2.35
2017-12-27T23:34:21.663Z,2.36
2017-12-27T23:36:49.083Z,2.41
2017-12-27T23:39:16.568Z,2.46
2017-12-27T23:41:43.961Z,2.47
2017-12-27T23:44:11.397Z,2.48
2017-12-27T23:46:38.819Z,2.51
2017-12-27T23:49:06.245Z,2.51
2017-12-27T23:51:33.647Z,2.47
2017-12-27T23:54:01.115Z,2.50
2017-12-27T23:56:28.518Z,2.50
2017-12-27T23:58:56.019Z,2.50
